createdAt,value
2023-02-06T00:02:00.176Z,94164.22
2023-02-06T00:05:04.446Z,94169.41
2023-02-06T00:08:08.356Z,94169.91
2023-02-06T00:11:14.889Z,94164.91
2023-02-06T00:14:18.452Z,94166.06
2023-02-06T00:17:22.104Z,94173.41
2023-02-06T00:20:26.014Z,94186.06
2023-02-06T00:23:30.033Z,94185.59
2023-02-06T00:26:33.798Z,94190.22
2023-02-06T00:29:37.497Z,94198.16
2023-02-06T00:32:41.293Z,94196.97
2023-02-06T00:35:45.315Z,94193.28
2023-02-06T00:38:49.011Z,94193.13
2023-02-06T00:41:52.937Z,94194.47
2023-02-06T00:44:55.959Z,94197.53
2023-02-06T00:47:59.840Z,94189.69
2023-02-06T00:51:03.468Z,94193.19
2023-02-06T00:54:08.294Z,94195.94
2023-02-06T00:57:11.906Z,94187.78
2023-02-06T01:00:17.897Z,94185.53
2023-02-06T01:03:22.214Z,94195.44
2023-02-06T01:06:25.446Z,94196.69
2023-02-06T01:09:29.050Z,94195.69
2023-02-06T01:12:33.886Z,94198.66
2023-02-06T01:15:37.628Z,94197.34
2023-02-06T01:18:41.528Z,94196.03
2023-02-06T01:21:45.162Z,94197.75
2023-02-06T01:24:48.569Z,94195.94
2023-02-06T01:27:52.235Z,94193.91
2023-02-06T01:30:55.720Z,94192.38
2023-02-06T01:34:01.147Z,94185.69
2023-02-06T01:37:04.379Z,94185.81
2023-02-06T01:40:10.748Z,94191.97
2023-02-06T01:43:19.409Z,94187.81
2023-02-06T01:46:22.952Z,94189.41
2023-02-06T01:49:35.853Z,94196.38
2023-02-06T01:52:38.827Z,94185.41
2023-02-06T01:55:45.244Z,94184.00
2023-02-06T01:58:59.789Z,94187.50
2023-02-06T02:02:03.878Z,94185.22
2023-02-06T02:05:12.248Z,94181.50
2023-02-06T02:08:21.502Z,94182.09
2023-02-06T02:11:31.479Z,94176.22
2023-02-06T02:14:36.424Z,94175.53
2023-02-06T02:18:12.059Z,94175.75
2023-02-06T02:21:27.287Z,94179.91
2023-02-06T02:25:07.532Z,94175.00
2023-02-06T02:28:22.486Z,94173.50
2023-02-06T02:31:29.208Z,94174.84
2023-02-06T02:35:02.781Z,94165.28
2023-02-06T02:38:06.305Z,94164.13
2023-02-06T02:41:32.001Z,94164.59
2023-02-06T02:44:39.167Z,94151.75
2023-02-06T02:48:05.745Z,94148.69
2023-02-06T02:51:11.735Z,94155.19
2023-02-06T02:54:15.019Z,94150.59
2023-02-06T02:57:28.282Z,94144.97
2023-02-06T03:00:35.762Z,94145.41
2023-02-06T03:03:42.828Z,94145.63
2023-02-06T03:07:23.187Z,94144.16
2023-02-06T03:10:57.076Z,94133.03
2023-02-06T03:14:00.401Z,94135.34
2023-02-06T03:17:10.385Z,94122.59
2023-02-06T03:20:15.753Z,94134.53
2023-02-06T03:23:28.473Z,94134.22
2023-02-06T03:26:34.050Z,94128.13
2023-02-06T03:29:39.566Z,94121.28
2023-02-06T03:32:45.919Z,94131.94
2023-02-06T03:35:50.082Z,94123.81
2023-02-06T03:38:54.831Z,94118.09
2023-02-06T03:42:00.435Z,94115.41
2023-02-06T03:45:18.541Z,94112.38
2023-02-06T03:48:53.197Z,94122.53
2023-02-06T03:52:02.325Z,94117.38
2023-02-06T03:55:12.016Z,94113.41
2023-02-06T03:58:17.027Z,94117.06
2023-02-06T04:01:20.257Z,94118.22
2023-02-06T04:04:30.164Z,94120.38
2023-02-06T04:07:36.821Z,94106.50
2023-02-06T04:10:40.486Z,94110.91
2023-02-06T04:13:44.100Z,94099.47
2023-02-06T04:16:47.994Z,94105.72
2023-02-06T04:19:50.776Z,94104.38
2023-02-06T04:22:54.756Z,94091.97
2023-02-06T04:25:58.499Z,94086.53
2023-02-06T04:29:02.314Z,94076.84
2023-02-06T04:32:06.836Z,94063.94
2023-02-06T04:35:09.968Z,94063.19
2023-02-06T04:38:13.170Z,94059.09
2023-02-06T04:41:16.822Z,94056.91
2023-02-06T04:44:21.370Z,94051.75
2023-02-06T04:47:24.636Z,94043.75
2023-02-06T04:50:32.326Z,94042.81
2023-02-06T04:53:36.246Z,94044.72
2023-02-06T04:56:40.014Z,94043.31
2023-02-06T04:59:42.944Z,94041.22
2023-02-06T05:02:45.914Z,94050.47
2023-02-06T05:05:49.472Z,94042.78
2023-02-06T05:08:53.032Z,94033.03
2023-02-06T05:11:57.413Z,94038.31
2023-02-06T05:15:01.010Z,94034.41
2023-02-06T05:18:04.232Z,94026.28
2023-02-06T05:21:08.651Z,94029.47
2023-02-06T05:24:12.117Z,94033.28
2023-02-06T05:27:15.127Z,94026.69
2023-02-06T05:30:18.653Z,94028.91
2023-02-06T05:33:21.675Z,94024.00
2023-02-06T05:36:24.658Z,94014.22
2023-02-06T05:39:27.642Z,94009.78
2023-02-06T05:42:32.400Z,94010.53
2023-02-06T05:45:36.252Z,94004.41
2023-02-06T05:48:41.848Z,94000.97
2023-02-06T05:51:45.869Z,93993.78
2023-02-06T05:54:51.540Z,93993.00
2023-02-06T05:57:55.317Z,93996.72
2023-02-06T06:00:59.448Z,93984.19
2023-02-06T06:04:02.432Z,93981.91
2023-02-06T06:07:06.186Z,93982.03
2023-02-06T06:10:09.969Z,93973.56
2023-02-06T06:13:13.114Z,93976.72
2023-02-06T06:16:16.090Z,93966.88
2023-02-06T06:19:20.334Z,93964.84
2023-02-06T06:22:23.694Z,93964.88
2023-02-06T06:25:27.546Z,93958.28
2023-02-06T06:28:30.509Z,93962.47
2023-02-06T06:31:33.835Z,93968.28
2023-02-06T06:34:37.607Z,93963.25
2023-02-06T06:37:40.864Z,93971.41
2023-02-06T06:40:43.772Z,93959.72
2023-02-06T06:43:47.401Z,93960.88
2023-02-06T06:46:50.912Z,93962.22
2023-02-06T06:49:54.557Z,93960.25
2023-02-06T06:52:57.386Z,93959.09
2023-02-06T06:56:05.844Z,93956.88
2023-02-06T06:59:09.365Z,93954.59
2023-02-06T07:02:12.959Z,93955.41
2023-02-06T07:05:16.303Z,93960.88
2023-02-06T07:08:20.402Z,93953.94
2023-02-06T07:11:24.850Z,93961.63
2023-02-06T07:14:28.510Z,93967.94
2023-02-06T07:17:31.563Z,93964.97
2023-02-06T07:31:46.597Z,93960.94
2023-02-06T07:34:49.902Z,93957.03
2023-02-06T07:37:56.573Z,93951.47
2023-02-06T07:41:04.056Z,93948.09
2023-02-06T07:44:08.620Z,93956.19
2023-02-06T07:47:11.483Z,93952.88
2023-02-06T07:50:14.996Z,93944.59
2023-02-06T07:53:18.578Z,93949.75
2023-02-06T07:56:23.895Z,93951.50
2023-02-06T07:59:27.621Z,93951.53
2023-02-06T08:02:31.191Z,93943.63
2023-02-06T08:05:35.655Z,93949.88
2023-02-06T08:08:39.799Z,93944.38
2023-02-06T08:11:44.509Z,93955.81
2023-02-06T08:14:47.825Z,93951.72
2023-02-06T08:17:51.487Z,93943.16
2023-02-06T08:20:55.148Z,93946.75
2023-02-06T08:24:00.408Z,93945.22
2023-02-06T08:27:04.353Z,93944.78
2023-02-06T08:30:08.594Z,93948.25
2023-02-06T08:33:12.646Z,93951.09
2023-02-06T08:36:17.425Z,93954.16
2023-02-06T08:39:20.596Z,93954.47
2023-02-06T08:42:24.040Z,93948.69
2023-02-06T08:45:27.320Z,93954.88
2023-02-06T08:48:31.045Z,93960.34
2023-02-06T08:51:36.686Z,93969.69
2023-02-06T08:54:40.283Z,93960.41
2023-02-06T08:57:44.252Z,93968.25
2023-02-06T09:00:47.172Z,93973.63
2023-02-06T09:03:50.732Z,93966.47
2023-02-06T09:06:53.945Z,93970.81
2023-02-06T09:09:57.447Z,93977.41
2023-02-06T09:13:02.463Z,93968.78
2023-02-06T09:16:07.114Z,93971.28
2023-02-06T09:19:11.834Z,93972.19
2023-02-06T09:22:16.084Z,93972.91
2023-02-06T09:25:20.242Z,93975.28
2023-02-06T09:28:24.400Z,93980.75
2023-02-06T09:31:33.582Z,93977.06
2023-02-06T09:34:36.912Z,93982.44
2023-02-06T09:37:39.764Z,93986.19
2023-02-06T09:40:42.765Z,93984.97
2023-02-06T09:44:07.112Z,93985.75
2023-02-06T09:47:39.617Z,93982.19
2023-02-06T09:50:58.775Z,93983.97
2023-02-06T09:54:16.262Z,93986.66
2023-02-06T09:57:42.281Z,93986.59
2023-02-06T10:00:56.767Z,93985.09
2023-02-06T10:04:20.526Z,93983.06
2023-02-06T10:07:35.807Z,93994.81
2023-02-06T10:10:44.980Z,93995.28
2023-02-06T10:13:57.317Z,93997.84
2023-02-06T10:17:06.677Z,93990.28
2023-02-06T10:20:31.329Z,93998.25
2023-02-06T10:24:16.630Z,94001.06
2023-02-06T10:27:20.964Z,94009.53
2023-02-06T10:30:53.807Z,94007.59
2023-02-06T10:34:06.352Z,94005.09
2023-02-06T10:37:28.416Z,94005.13
2023-02-06T10:40:49.649Z,93999.66
2023-02-06T10:44:20.387Z,94003.19
2023-02-06T10:47:37.340Z,94000.88
2023-02-06T10:50:46.991Z,94001.41
2023-02-06T10:53:55.140Z,94008.94
2023-02-06T10:57:00.791Z,93996.09
2023-02-06T11:00:05.628Z,94002.47
2023-02-06T11:03:17.564Z,94001.19
2023-02-06T11:06:23.038Z,93997.91
2023-02-06T11:09:27.431Z,93996.91
2023-02-06T11:12:40.124Z,94001.78
2023-02-06T11:16:16.837Z,93991.00
2023-02-06T11:19:39.614Z,93998.50
2023-02-06T11:22:52.262Z,94002.94
2023-02-06T11:26:11.453Z,94006.19
2023-02-06T11:29:37.741Z,94001.84
2023-02-06T11:32:55.746Z,94002.66
2023-02-06T11:36:18.730Z,94005.16
2023-02-06T11:39:25.507Z,94004.28
2023-02-06T11:42:29.180Z,94003.38
2023-02-06T11:45:34.860Z,94005.59
2023-02-06T11:48:55.905Z,94003.53
2023-02-06T11:52:00.934Z,93996.75
2023-02-06T11:55:05.593Z,93995.41
2023-02-06T11:58:14.308Z,93993.94
2023-02-06T12:01:22.506Z,93991.72
2023-02-06T12:08:33.870Z,93987.44
2023-02-06T12:11:51.780Z,93988.75
2023-02-06T12:18:41.777Z,93989.03
2023-02-06T12:21:54.695Z,93996.88
2023-02-06T12:25:00.700Z,93996.28
2023-02-06T12:28:23.088Z,93998.78
2023-02-06T12:31:50.930Z,93994.75
2023-02-06T12:35:12.433Z,93997.25
2023-02-06T12:38:48.978Z,94000.50
2023-02-06T12:42:26.097Z,94000.84
2023-02-06T12:45:44.313Z,94006.59
2023-02-06T12:48:57.541Z,94001.91
2023-02-06T12:52:19.032Z,94003.53
2023-02-06T12:55:36.509Z,93999.28
2023-02-06T12:58:46.558Z,94004.00
2023-02-06T13:02:34.031Z,94011.94
2023-02-06T13:05:44.852Z,94008.84
2023-02-06T13:08:56.845Z,94012.53
2023-02-06T13:12:14.489Z,94011.66
2023-02-06T13:15:36.783Z,94020.81
2023-02-06T13:18:42.703Z,94020.81
2023-02-06T13:21:53.295Z,94022.25
2023-02-06T13:24:58.906Z,94025.34
2023-02-06T13:28:25.708Z,94030.00
2023-02-06T13:31:31.128Z,94019.38
2023-02-06T13:34:35.790Z,94021.13
2023-02-06T13:37:45.537Z,94018.66
2023-02-06T13:41:09.199Z,94027.75
2023-02-06T13:44:34.502Z,94027.59
2023-02-06T13:47:49.240Z,94030.31
2023-02-06T13:51:22.421Z,94026.78
2023-02-06T13:54:51.132Z,94031.50
2023-02-06T13:58:05.548Z,94026.44
2023-02-06T14:01:20.936Z,94029.03
2023-02-06T14:04:28.226Z,94030.34
2023-02-06T14:07:56.250Z,94028.00
2023-02-06T14:11:15.362Z,94025.63
2023-02-06T14:14:46.513Z,94024.81
2023-02-06T14:17:52.258Z,94030.78
2023-02-06T14:21:00.664Z,94036.31
2023-02-06T14:24:23.674Z,94027.22
2023-02-06T14:27:35.274Z,94021.78
2023-02-06T14:30:53.996Z,94019.72
2023-02-06T14:34:25.972Z,94025.38
2023-02-06T14:37:55.975Z,94023.13
2023-02-06T14:41:00.419Z,94014.72
2023-02-06T14:44:04.322Z,94011.47
2023-02-06T14:47:16.926Z,94009.69
2023-02-06T14:50:29.124Z,94007.19
2023-02-06T14:53:33.796Z,94008.16
2023-02-06T14:56:38.894Z,94009.97
2023-02-06T14:59:55.568Z,94005.84
2023-02-06T15:03:06.759Z,94014.06
2023-02-06T15:06:16.232Z,94022.34
2023-02-06T15:09:44.534Z,94015.88
2023-02-06T15:12:54.540Z,94015.25
2023-02-06T15:15:58.872Z,94017.91
2023-02-06T15:19:20.110Z,94018.75
2023-02-06T15:22:29.993Z,94015.84
2023-02-06T15:25:42.825Z,94008.94
2023-02-06T15:28:47.291Z,94019.03
2023-02-06T15:31:53.771Z,94025.97
2023-02-06T15:34:58.548Z,94029.28
2023-02-06T15:38:07.145Z,94034.91
2023-02-06T15:41:13.685Z,94033.53
2023-02-06T15:44:22.702Z,94037.31
2023-02-06T15:47:25.782Z,94042.13
2023-02-06T15:50:29.437Z,94037.63
2023-02-06T15:53:42.414Z,94043.25
2023-02-06T15:56:51.727Z,94042.44
2023-02-06T15:59:57.484Z,94042.06
2023-02-06T16:03:18.706Z,94038.25
2023-02-06T16:06:23.135Z,94035.03
2023-02-06T16:09:26.855Z,94043.53
2023-02-06T16:12:34.636Z,94047.38
2023-02-06T16:15:39.859Z,94045.53
2023-02-06T16:18:43.811Z,94052.78
2023-02-06T16:22:16.442Z,94048.44
2023-02-06T16:25:30.023Z,94043.03
2023-02-06T16:28:41.852Z,94050.91
2023-02-06T16:31:45.641Z,94044.44
2023-02-06T16:34:49.067Z,94046.75
2023-02-06T16:37:53.907Z,94047.03
2023-02-06T16:40:57.552Z,94048.50
2023-02-06T16:44:01.875Z,94044.78
2023-02-06T16:47:05.012Z,94046.44
2023-02-06T16:50:10.499Z,94045.66
2023-02-06T16:53:26.116Z,94051.75
2023-02-06T16:56:29.835Z,94065.38
2023-02-06T16:59:32.689Z,94060.81
2023-02-06T17:02:36.384Z,94056.75
2023-02-06T17:05:41.525Z,94063.22
2023-02-06T17:08:45.609Z,94066.84
2023-02-06T17:11:48.506Z,94062.47
2023-02-06T17:14:51.660Z,94063.63
2023-02-06T17:17:55.280Z,94081.63
2023-02-06T17:20:58.105Z,94068.06
2023-02-06T17:24:02.448Z,94074.13
2023-02-06T17:27:07.777Z,94071.28
2023-02-06T17:30:18.672Z,94068.97
2023-02-06T17:33:21.625Z,94070.75
2023-02-06T17:36:30.052Z,94075.28
2023-02-06T17:39:33.059Z,94067.03
2023-02-06T17:42:36.718Z,94069.25
2023-02-06T17:45:40.261Z,94073.44
2023-02-06T17:48:45.009Z,94069.97
2023-02-06T17:51:48.644Z,94063.31
2023-02-06T17:54:52.630Z,94063.75
2023-02-06T17:57:56.433Z,94069.78
2023-02-06T18:01:00.144Z,94077.84
2023-02-06T18:04:04.242Z,94072.38
2023-02-06T18:07:08.972Z,94075.19
2023-02-06T18:10:13.292Z,94082.88
2023-02-06T18:13:16.543Z,94081.19
2023-02-06T18:16:22.445Z,94084.81
2023-02-06T18:19:26.171Z,94090.56
2023-02-06T18:22:29.798Z,94086.94
2023-02-06T18:25:33.369Z,94084.53
2023-02-06T18:28:37.687Z,94085.56
2023-02-06T18:31:40.726Z,94094.91
2023-02-06T18:34:44.374Z,94086.25
2023-02-06T18:37:47.668Z,94095.41
2023-02-06T18:40:50.834Z,94096.59
2023-02-06T18:43:53.735Z,94096.47
2023-02-06T18:46:56.684Z,94099.28
2023-02-06T18:50:00.863Z,94101.44
2023-02-06T18:53:05.075Z,94101.31
2023-02-06T18:56:08.662Z,94096.66
2023-02-06T18:59:11.518Z,94094.78
2023-02-06T19:02:15.135Z,94098.03
2023-02-06T19:05:19.522Z,94095.06
2023-02-06T19:08:23.319Z,94102.50
2023-02-06T19:11:27.068Z,94097.44
2023-02-06T19:14:30.385Z,94097.09
2023-02-06T19:17:33.524Z,94092.44
2023-02-06T19:20:36.749Z,94107.41
2023-02-06T19:23:40.682Z,94108.53
2023-02-06T19:26:44.492Z,94114.06
2023-02-06T19:29:48.046Z,94115.00
2023-02-06T19:32:52.443Z,94113.16
2023-02-06T19:35:56.236Z,94110.53
2023-02-06T19:39:04.903Z,94111.13
2023-02-06T19:42:11.420Z,94101.75
2023-02-06T19:45:14.321Z,94103.06
2023-02-06T19:48:17.574Z,94099.97
2023-02-06T19:51:26.472Z,94100.25
2023-02-06T19:54:30.559Z,94094.09
2023-02-06T19:57:33.750Z,94093.91
2023-02-06T20:00:38.140Z,94091.31
2023-02-06T20:03:41.415Z,94088.53
2023-02-06T20:06:45.815Z,94095.66
2023-02-06T20:09:48.684Z,94090.63
2023-02-06T20:12:53.891Z,94097.09
2023-02-06T20:16:03.680Z,94097.53
2023-02-06T20:19:09.120Z,94104.94
2023-02-06T20:22:12.052Z,94099.75
2023-02-06T20:25:14.996Z,94093.25
2023-02-06T20:28:17.941Z,94098.44
2023-02-06T20:31:22.313Z,94090.88
2023-02-06T20:34:26.737Z,94086.50
2023-02-06T20:37:31.139Z,94098.56
2023-02-06T20:40:34.166Z,94094.84
2023-02-06T20:43:37.271Z,94091.44
2023-02-06T20:46:40.860Z,94098.56
2023-02-06T20:49:43.834Z,94090.69
2023-02-06T20:52:46.861Z,94092.88
2023-02-06T20:55:50.160Z,94089.50
2023-02-06T20:58:54.055Z,94092.28
2023-02-06T21:01:57.537Z,94087.94
2023-02-06T21:05:01.299Z,94090.78
2023-02-06T21:08:05.366Z,94083.63
2023-02-06T21:11:09.374Z,94087.72
2023-02-06T21:14:13.438Z,94085.53
2023-02-06T21:17:17.091Z,94088.69
2023-02-06T21:20:20.131Z,94078.28
2023-02-06T21:23:24.724Z,94086.31
2023-02-06T21:26:28.753Z,94089.06
2023-02-06T21:29:31.658Z,94089.41
2023-02-06T21:32:35.640Z,94082.94
2023-02-06T21:35:40.844Z,94091.34
2023-02-06T21:38:44.841Z,94090.63
2023-02-06T21:41:51.932Z,94091.34
2023-02-06T21:44:56.253Z,94092.38
2023-02-06T21:47:59.191Z,94089.88
2023-02-06T21:51:14.250Z,94087.91
2023-02-06T21:54:18.210Z,94091.16
2023-02-06T21:57:22.068Z,94090.41
2023-02-06T22:00:25.888Z,94099.28
2023-02-06T22:03:30.247Z,94092.88
2023-02-06T22:06:36.112Z,94093.84
2023-02-06T22:09:40.216Z,94092.41
2023-02-06T22:12:43.780Z,94095.88
2023-02-06T22:15:51.907Z,94093.66
2023-02-06T22:18:56.329Z,94093.09
2023-02-06T22:22:00.272Z,94082.59
2023-02-06T22:25:04.188Z,94092.19
2023-02-06T22:28:08.003Z,94091.91
2023-02-06T22:31:15.491Z,94082.63
2023-02-06T22:34:21.707Z,94087.03
2023-02-06T22:37:25.409Z,94081.25
2023-02-06T22:40:29.352Z,94088.88
2023-02-06T22:43:34.750Z,94091.34
2023-02-06T22:46:40.310Z,94078.28
2023-02-06T22:49:43.992Z,94076.22
2023-02-06T22:53:06.034Z,94081.88
2023-02-06T22:56:33.133Z,94080.47
2023-02-06T22:59:36.769Z,94081.22
2023-02-06T23:02:40.183Z,94085.41
2023-02-06T23:05:44.108Z,94090.38
2023-02-06T23:08:47.823Z,94088.06
2023-02-06T23:11:52.645Z,94086.81
2023-02-06T23:14:55.971Z,94088.81
2023-02-06T23:17:59.168Z,94092.06
2023-02-06T23:21:12.545Z,94098.78
2023-02-06T23:24:17.245Z,94096.81
2023-02-06T23:27:21.602Z,94092.41
2023-02-06T23:30:25.699Z,94099.63
2023-02-06T23:33:28.668Z,94097.16
2023-02-06T23:36:32.144Z,94106.84
2023-02-06T23:39:34.955Z,94103.44
2023-02-06T23:42:38.236Z,94116.34
2023-02-06T23:45:42.379Z,94120.06
2023-02-06T23:48:45.285Z,94112.38
2023-02-06T23:51:48.546Z,94120.31
2023-02-06T23:54:52.100Z,94125.09
2023-02-06T23:57:55.960Z,94126.59
